createdAt,value
2022-12-14T00:00:27.493Z,99.93
2022-12-14T00:05:56.612Z,99.67
2022-12-14T00:16:32.155Z,99.51
2022-12-14T00:21:45.507Z,99.60
2022-12-14T00:26:56.683Z,99.61
2022-12-14T00:32:01.018Z,99.78
2022-12-14T00:37:06.991Z,99.70
2022-12-14T00:42:11.529Z,99.48
2022-12-14T00:47:17.257Z,99.63
2022-12-14T00:52:24.294Z,99.47
2022-12-14T00:57:32.109Z,99.51
2022-12-14T01:02:40.208Z,99.57
2022-12-14T01:07:49.353Z,99.66
2022-12-14T01:12:54.764Z,99.83
2022-12-14T01:18:01.022Z,99.35
2022-12-14T01:23:09.580Z,99.68
2022-12-14T01:28:18.489Z,99.37
2022-12-14T01:33:27.011Z,99.46
2022-12-14T01:38:34.538Z,99.05
2022-12-14T01:44:03.016Z,98.98
2022-12-14T01:49:22.431Z,99.17
2022-12-14T01:54:32.700Z,99.03
2022-12-14T01:59:46.187Z,98.90
2022-12-14T02:04:56.115Z,99.03
2022-12-14T02:10:03.158Z,99.34
2022-12-14T02:15:06.931Z,99.63
2022-12-14T02:20:11.830Z,99.74
2022-12-14T02:25:27.424Z,99.65
2022-12-14T02:30:39.498Z,99.32
2022-12-14T02:36:20.494Z,99.81
2022-12-14T02:41:28.716Z,99.42
2022-12-14T02:46:50.091Z,99.48
2022-12-14T02:52:07.288Z,99.49
2022-12-14T02:58:06.716Z,98.96
2022-12-14T03:03:10.229Z,99.16
2022-12-14T03:08:16.821Z,99.13
2022-12-14T03:13:22.898Z,99.24
2022-12-14T03:18:29.022Z,98.80
2022-12-14T03:23:38.631Z,99.09
2022-12-14T03:28:52.078Z,98.76
2022-12-14T03:33:59.183Z,99.17
2022-12-14T03:39:07.716Z,98.88
2022-12-14T03:44:29.556Z,99.00
2022-12-14T03:49:57.134Z,99.46
2022-12-14T03:55:34.240Z,99.50
2022-12-14T04:00:50.630Z,99.46
2022-12-14T04:06:04.410Z,99.63
2022-12-14T04:11:30.659Z,99.62
2022-12-14T04:17:00.493Z,99.07
2022-12-14T04:22:09.283Z,98.94
2022-12-14T04:27:32.407Z,99.07
2022-12-14T04:32:52.889Z,99.31
2022-12-14T04:38:18.914Z,99.21
2022-12-14T04:43:27.079Z,99.09
2022-12-14T04:48:45.965Z,98.80
2022-12-14T04:53:56.240Z,99.08
2022-12-14T04:59:00.480Z,99.26
2022-12-14T05:04:22.211Z,98.79
2022-12-14T05:10:04.764Z,99.16
2022-12-14T05:15:13.688Z,98.96
2022-12-14T05:20:21.194Z,99.49
2022-12-14T05:25:24.816Z,98.75
2022-12-14T05:30:28.273Z,99.46
2022-12-14T05:35:31.740Z,98.68
2022-12-14T05:40:35.048Z,98.91
2022-12-14T05:45:38.399Z,98.96
2022-12-14T05:50:42.184Z,99.02
2022-12-14T05:55:53.481Z,99.04
2022-12-14T06:01:04.164Z,99.59
2022-12-14T06:06:11.321Z,99.11
2022-12-14T06:11:19.606Z,99.33
2022-12-14T06:16:25.669Z,98.95
2022-12-14T06:21:33.366Z,98.59
2022-12-14T06:26:37.304Z,98.61
2022-12-14T06:31:40.623Z,98.80
2022-12-14T06:36:44.138Z,98.84
2022-12-14T06:41:51.198Z,98.95
2022-12-14T06:46:54.670Z,98.93
2022-12-14T06:51:58.264Z,98.88
2022-12-14T06:57:01.880Z,98.57
2022-12-14T07:02:05.267Z,99.06
2022-12-14T07:07:08.809Z,98.93
2022-12-14T07:12:12.429Z,98.81
2022-12-14T07:17:15.738Z,99.20
2022-12-14T07:22:20.354Z,99.24
2022-12-14T07:27:25.025Z,99.08
2022-12-14T07:32:28.441Z,99.09
2022-12-14T07:37:31.746Z,98.89
2022-12-14T07:42:35.163Z,98.67
2022-12-14T07:47:38.469Z,98.51
2022-12-14T07:52:41.987Z,98.28
2022-12-14T07:57:45.500Z,97.87
2022-12-14T08:02:48.973Z,97.71
2022-12-14T08:07:52.447Z,98.30
2022-12-14T08:12:56.252Z,98.22
2022-12-14T08:17:59.665Z,98.91
2022-12-14T08:23:03.391Z,98.83
2022-12-14T08:28:06.798Z,99.54
2022-12-14T08:33:10.211Z,99.77
2022-12-14T08:38:13.829Z,99.71
2022-12-14T08:43:25.459Z,99.17
2022-12-14T08:48:29.566Z,99.62
2022-12-14T08:53:33.315Z,99.12
2022-12-14T08:58:38.045Z,98.60
2022-12-14T09:03:42.651Z,98.28
2022-12-14T09:08:47.161Z,98.31
2022-12-14T09:13:57.072Z,97.49
2022-12-14T09:19:00.795Z,97.10
2022-12-14T09:24:06.327Z,96.72
2022-12-14T09:29:16.325Z,96.38
2022-12-14T09:34:19.745Z,95.96
2022-12-14T09:39:23.150Z,95.98
2022-12-14T09:44:44.280Z,96.45
2022-12-14T09:49:53.740Z,96.06
2022-12-14T09:54:58.684Z,96.76
2022-12-14T10:00:02.304Z,96.41
2022-12-14T10:05:14.624Z,96.23
2022-12-14T10:10:56.333Z,95.96
2022-12-14T10:16:19.046Z,96.16
2022-12-14T10:21:25.278Z,95.66
2022-12-14T10:26:40.575Z,96.25
2022-12-14T10:32:05.537Z,96.16
2022-12-14T10:37:14.736Z,96.19
2022-12-14T10:42:43.099Z,96.05
2022-12-14T10:47:57.919Z,96.02
2022-12-14T10:53:04.501Z,95.77
2022-12-14T10:58:11.242Z,95.73
2022-12-14T11:03:16.135Z,95.37
2022-12-14T11:08:51.912Z,95.68
2022-12-14T11:14:07.820Z,96.13
2022-12-14T11:19:23.031Z,95.90
2022-12-14T11:24:29.084Z,96.55
2022-12-14T11:29:37.036Z,96.82
2022-12-14T11:34:43.692Z,96.38
2022-12-14T11:39:52.381Z,96.48
2022-12-14T11:45:15.709Z,96.40
2022-12-14T11:50:25.385Z,96.51
2022-12-14T11:55:29.504Z,96.29
2022-12-14T12:00:56.566Z,96.27
2022-12-14T12:06:05.001Z,96.07
2022-12-14T12:11:24.076Z,96.27
2022-12-14T12:16:29.441Z,96.34
2022-12-14T12:21:37.166Z,95.88
2022-12-14T12:26:55.001Z,96.37
2022-12-14T12:32:07.636Z,96.29
2022-12-14T12:37:31.270Z,96.65
2022-12-14T12:42:45.484Z,96.18
2022-12-14T12:47:56.268Z,96.33
2022-12-14T12:53:05.010Z,96.32
2022-12-14T12:58:19.584Z,96.18
2022-12-14T13:03:28.365Z,96.05
2022-12-14T13:08:39.425Z,95.80
2022-12-14T13:13:51.839Z,96.03
2022-12-14T13:19:32.087Z,95.19
2022-12-14T13:24:26.313Z,95.30
2022-12-14T13:29:51.641Z,96.00
2022-12-14T13:35:26.391Z,96.49
2022-12-14T13:40:43.524Z,95.90
2022-12-14T13:45:49.586Z,95.84
2022-12-14T13:51:03.661Z,95.53
2022-12-14T13:56:07.686Z,96.11
2022-12-14T14:01:13.940Z,95.36
2022-12-14T14:06:56.291Z,95.85
2022-12-14T14:12:00.834Z,95.83
2022-12-14T14:17:29.510Z,95.25
2022-12-14T14:22:32.950Z,95.22
2022-12-14T14:27:42.307Z,95.57
2022-12-14T14:32:46.044Z,95.14
2022-12-14T14:38:02.243Z,95.42
2022-12-14T14:43:23.266Z,95.34
2022-12-14T14:48:39.682Z,95.11
2022-12-14T14:53:43.507Z,95.16
2022-12-14T14:58:46.925Z,95.06
2022-12-14T15:03:56.559Z,95.07
2022-12-14T15:09:12.488Z,94.85
2022-12-14T15:14:26.670Z,94.72
2022-12-14T15:19:36.715Z,94.80
2022-12-14T15:24:43.307Z,94.77
2022-12-14T15:29:49.309Z,94.69
2022-12-14T15:35:09.915Z,94.79
2022-12-14T15:40:22.540Z,94.93
2022-12-14T15:45:30.544Z,94.93
2022-12-14T15:50:35.286Z,94.83
2022-12-14T15:55:42.137Z,94.82
2022-12-14T16:00:49.787Z,95.02
2022-12-14T16:05:54.127Z,94.90
2022-12-14T16:11:01.946Z,94.81
2022-12-14T16:16:10.170Z,95.01
2022-12-14T16:21:29.762Z,94.93
2022-12-14T16:26:38.914Z,94.77
2022-12-14T16:31:42.694Z,94.75
2022-12-14T16:37:14.596Z,94.97
2022-12-14T16:42:19.869Z,95.14
2022-12-14T16:47:27.177Z,95.23
2022-12-14T16:52:33.416Z,95.34
2022-12-14T16:57:41.477Z,95.25
2022-12-14T17:02:57.201Z,95.57
2022-12-14T17:08:00.796Z,95.50
2022-12-14T17:13:04.211Z,95.84
2022-12-14T17:18:08.233Z,95.86
2022-12-14T17:23:17.098Z,95.67
2022-12-14T17:28:27.483Z,95.79
2022-12-14T17:33:32.499Z,96.02
2022-12-14T17:38:36.530Z,95.95
2022-12-14T17:43:44.205Z,96.06
2022-12-14T17:48:54.723Z,96.13
2022-12-14T17:53:59.776Z,96.06
2022-12-14T17:59:02.982Z,96.34
2022-12-14T18:04:06.481Z,96.36
2022-12-14T18:09:10.630Z,96.45
2022-12-14T18:14:15.913Z,96.33
2022-12-14T18:19:19.403Z,96.30
2022-12-14T18:24:26.055Z,96.02
2022-12-14T18:29:30.019Z,95.78
2022-12-14T18:34:33.430Z,95.55
2022-12-14T18:39:36.945Z,95.69
2022-12-14T18:44:40.358Z,95.62
2022-12-14T18:49:43.976Z,95.70
2022-12-14T18:54:47.593Z,95.69
2022-12-14T18:59:51.173Z,95.77
2022-12-14T19:04:56.900Z,95.86
2022-12-14T19:10:07.848Z,95.83
2022-12-14T19:15:27.560Z,95.93
2022-12-14T19:21:00.310Z,95.95
2022-12-14T19:26:05.824Z,95.98
2022-12-14T19:31:11.329Z,95.69
2022-12-14T19:36:14.802Z,95.67
2022-12-14T19:41:20.765Z,95.52
2022-12-14T19:46:24.809Z,95.56
2022-12-14T19:51:28.422Z,95.31
2022-12-14T19:56:31.937Z,95.29
2022-12-14T20:01:41.940Z,95.38
2022-12-14T20:06:49.839Z,95.20
2022-12-14T20:11:55.131Z,95.43
2022-12-14T20:16:58.551Z,95.45
2022-12-14T20:22:08.056Z,95.57
2022-12-14T20:27:12.075Z,95.44
2022-12-14T20:32:15.894Z,95.46
2022-12-14T20:37:21.012Z,95.29
2022-12-14T20:42:26.481Z,95.42
2022-12-14T20:47:30.231Z,95.16
2022-12-14T20:52:33.744Z,94.91
2022-12-14T20:57:38.200Z,94.92
2022-12-14T21:02:43.047Z,94.91
2022-12-14T21:07:46.754Z,94.83
2022-12-14T21:12:50.061Z,94.57
2022-12-14T21:17:53.406Z,94.74
2022-12-14T21:22:57.706Z,94.72
2022-12-14T21:28:01.018Z,94.60
2022-12-14T21:33:04.645Z,94.44
2022-12-14T21:38:08.048Z,94.48
2022-12-14T21:43:13.100Z,94.55
2022-12-14T21:48:16.413Z,94.66
2022-12-14T21:53:19.720Z,94.67
2022-12-14T21:58:24.978Z,94.43
2022-12-14T22:03:28.468Z,94.64
2022-12-14T22:08:32.326Z,94.66
2022-12-14T22:13:35.934Z,94.67
2022-12-14T22:18:39.243Z,94.58
2022-12-14T22:23:43.832Z,94.44
2022-12-14T22:28:52.543Z,94.50
2022-12-14T22:33:55.937Z,94.71
2022-12-14T22:39:00.076Z,94.39
2022-12-14T22:44:04.252Z,94.39
2022-12-14T22:49:07.505Z,94.80
2022-12-14T22:54:22.907Z,94.60
2022-12-14T22:59:30.574Z,94.82
2022-12-14T23:04:34.232Z,94.53
2022-12-14T23:09:56.076Z,94.63
2022-12-14T23:15:18.637Z,94.76
2022-12-14T23:20:40.790Z,95.03
2022-12-14T23:26:03.045Z,94.93
2022-12-14T23:31:25.237Z,95.02
2022-12-14T23:36:47.560Z,94.85
2022-12-14T23:42:09.911Z,94.91
2022-12-14T23:47:32.065Z,94.56
2022-12-14T23:52:54.317Z,94.74
2022-12-14T23:58:16.675Z,94.79
